Unionville, Illinois
Current Conditions -  °F | °C
As of 8:35 AM on Friday 31 Oct 2014 (Local Time) from KM30 Reporting Station
Overcast Overcast  
Wind Chill: 51°   Ceiling: 4600
Heat Index: 51°   Visibility: 10mi
Dew Point: 49°   Wind: 10mph
Humidity: 95%   Direction: 340°NNW
Pressure: 30.1"   Gusts: 16mph
Location:  37.1362°N, 88.5694°W
Report Text: KM30 311335Z AUTO 34009G14KT 10SM SCT031 OVC046 10/10 A3010 RMK AO2 T01030095
Loading
Personal Weather Stations






























Interactive Weather Map
Tropical Storm Tracking
New forecast layout! Learn more

10-Day Weather Forecast

Advertisements
Track Severe Weather on mobile